Time;durP1;ratioP1;P1;durP2;ratioP2;P2;SDS_P1;SDS_P2;PMS_P1;PMS_P2;Temp;Humidity;BMP_temperature;BMP_pressure;BME280_temperature;BME280_humidity;BME280_pressure;Samples;Min_cycle;Max_cycle;Signal;HPM_P1;HPM_P2
2024/01/20 00:00:16;;;;;;;31.37;21.87;;;0.00;99.90;;;;;;4983339;28;20210;-60
2024/01/20 00:02:43;;;;;;;27.57;21.57;;;0.00;99.90;;;;;;4983063;28;20202;-62
2024/01/20 00:05:11;;;;;;;23.87;20.93;;;0.00;99.90;;;;;;4986139;28;20546;-63
2024/01/20 00:07:39;;;;;;;24.57;21.97;;;-0.10;99.90;;;;;;4980988;28;20718;-63
2024/01/20 00:10:12;;;;;;;22.43;20.10;;;-0.20;99.90;;;;;;4969667;28;20201;-62
2024/01/20 00:12:42;;;;;;;25.90;20.73;;;-0.20;99.90;;;;;;4982423;28;20295;-60
2024/01/20 00:15:09;;;;;;;24.77;20.20;;;-0.30;99.90;;;;;;4967637;28;20201;-61
2024/01/20 00:17:38;;;;;;;23.70;20.57;;;-0.40;99.90;;;;;;4964931;28;20596;-61
2024/01/20 00:20:07;;;;;;;26.20;21.47;;;-0.50;99.90;;;;;;4945288;28;20217;-60
2024/01/20 00:22:35;;;;;;;22.17;19.63;;;-0.60;99.90;;;;;;4986954;28;20201;-61
2024/01/20 00:25:02;;;;;;;24.07;19.50;;;-0.70;99.90;;;;;;4966501;28;20197;-60
2024/01/20 00:27:30;;;;;;;25.77;20.37;;;-0.60;99.90;;;;;;4977224;28;20194;-61
2024/01/20 00:29:58;;;;;;;21.43;19.13;;;-0.60;99.90;;;;;;4986976;28;20208;-61
2024/01/20 00:32:26;;;;;;;22.20;19.83;;;-0.70;99.90;;;;;;4985088;28;20225;-61
2024/01/20 00:34:53;;;;;;;21.93;19.80;;;-0.80;99.90;;;;;;4966214;28;20392;-61
2024/01/20 00:37:37;;;;;;;22.10;19.83;;;-0.80;99.90;;;;;;4985042;28;20661;-62
2024/01/20 00:40:06;;;;;;;21.53;19.33;;;-0.80;99.90;;;;;;4986126;28;20205;-62
2024/01/20 00:42:34;;;;;;;24.70;18.63;;;-0.90;99.90;;;;;;4983407;28;20197;-63
2024/01/20 00:45:02;;;;;;;24.53;20.20;;;-1.00;99.90;;;;;;4969326;28;20202;-64
2024/01/20 00:47:30;;;;;;;20.67;18.47;;;-1.00;99.90;;;;;;4962353;28;20233;-60
2024/01/20 00:49:57;;;;;;;19.90;17.77;;;-1.10;99.90;;;;;;4977549;28;20206;-62
2024/01/20 00:52:24;;;;;;;21.00;18.87;;;-1.00;99.90;;;;;;4985039;28;20612;-61
2024/01/20 00:54:51;;;;;;;20.20;18.30;;;-0.90;99.90;;;;;;4986437;28;20276;-64
2024/01/20 00:57:18;;;;;;;21.27;18.97;;;-1.10;99.90;;;;;;4969422;28;20213;-63
2024/01/20 00:59:46;;;;;;;20.67;18.67;;;-1.10;99.90;;;;;;4987356;28;20202;-63
2024/01/20 01:02:15;;;;;;;23.30;19.37;;;-1.10;99.90;;;;;;4981844;28;20205;-63
2024/01/20 01:04:43;;;;;;;20.67;18.63;;;-1.00;99.90;;;;;;4988094;28;20258;-61
2024/01/20 01:07:10;;;;;;;19.90;17.87;;;-1.00;99.90;;;;;;4969439;28;20800;-63
2024/01/20 01:09:37;;;;;;;21.10;17.57;;;-1.10;99.90;;;;;;4985317;28;20526;-62
2024/01/20 01:12:04;;;;;;;19.47;17.50;;;-1.20;99.90;;;;;;4986183;28;20214;-63
2024/01/20 01:14:31;;;;;;;22.27;18.70;;;-1.10;99.90;;;;;;4983839;28;20461;-66
2024/01/20 01:16:58;;;;;;;19.23;17.50;;;-1.00;99.90;;;;;;4986089;28;20343;-62
2024/01/20 01:19:25;;;;;;;20.93;18.30;;;-1.10;99.90;;;;;;4967203;28;20217;-62
2024/01/20 01:21:52;;;;;;;17.93;16.27;;;-1.20;99.90;;;;;;4964946;28;20666;-61
2024/01/20 01:24:19;;;;;;;19.40;17.33;;;-1.20;99.90;;;;;;4983614;28;20190;-61
2024/01/20 01:26:46;;;;;;;27.77;17.53;;;-1.20;99.90;;;;;;4986775;28;20197;-63
2024/01/20 01:29:13;;;;;;;19.30;16.10;;;-1.30;99.90;;;;;;4980229;28;20561;-61
2024/01/20 01:31:40;;;;;;;21.27;17.17;;;-1.30;99.90;;;;;;4986043;28;20205;-62
2024/01/20 01:34:07;;;;;;;18.67;16.90;;;-1.20;99.90;;;;;;4985087;28;20213;-62
2024/01/20 01:36:34;;;;;;;20.10;18.23;;;-1.10;99.90;;;;;;4980851;28;20193;-61
2024/01/20 01:39:01;;;;;;;19.03;17.03;;;-1.30;99.90;;;;;;4977166;28;20277;-60
2024/01/20 01:41:28;;;;;;;20.50;17.10;;;-1.20;99.90;;;;;;4978187;28;20202;-62
2024/01/20 01:43:55;;;;;;;19.07;16.60;;;-1.20;99.90;;;;;;4959297;28;20206;-61
2024/01/20 01:46:23;;;;;;;17.77;16.10;;;-1.30;99.90;;;;;;4968313;28;20193;-62
2024/01/20 01:48:51;;;;;;;21.40;15.73;;;-1.30;99.90;;;;;;4986338;28;20284;-62
2024/01/20 01:51:21;;;;;;;20.23;16.40;;;-1.30;99.90;;;;;;4983389;28;20555;-65
2024/01/20 01:53:48;;;;;;;18.30;16.37;;;-1.30;99.90;;;;;;4983657;28;20680;-64
2024/01/20 01:56:16;;;;;;;18.63;17.03;;;-1.30;99.90;;;;;;4986960;28;20289;-62
2024/01/20 01:58:43;;;;;;;19.57;16.33;;;-1.30;99.90;;;;;;4989766;28;20570;-63
2024/01/20 02:01:11;;;;;;;19.20;16.50;;;-1.30;99.90;;;;;;4990313;28;20221;-63
2024/01/20 02:03:39;;;;;;;17.03;15.53;;;-1.40;99.90;;;;;;4966674;28;20201;-61
2024/01/20 02:06:06;;;;;;;16.83;15.43;;;-1.40;99.90;;;;;;4993968;28;20194;-60
2024/01/20 02:08:35;;;;;;;19.43;17.40;;;-1.40;99.90;;;;;;4974966;28;20189;-62
2024/01/20 02:11:03;;;;;;;17.83;16.13;;;-1.40;99.90;;;;;;4992207;28;20243;-64
2024/01/20 02:13:30;;;;;;;17.77;16.00;;;-1.40;99.90;;;;;;4975009;28;20237;-59
2024/01/20 02:15:58;;;;;;;16.67;15.33;;;-1.30;99.90;;;;;;4997383;28;20243;-63
2024/01/20 02:18:27;;;;;;;19.73;15.13;;;-1.20;99.90;;;;;;4988281;28;20189;-60
2024/01/20 02:20:54;;;;;;;16.63;15.10;;;-1.30;99.90;;;;;;4987335;28;20722;-62
2024/01/20 02:23:22;;;;;;;17.23;15.27;;;-1.20;99.90;;;;;;4989141;28;20299;-63
2024/01/20 02:25:49;;;;;;;17.13;14.90;;;-1.20;99.90;;;;;;4991199;28;20271;-61
2024/01/20 02:28:16;;;;;;;18.00;16.30;;;-1.30;99.90;;;;;;4988794;28;20279;-62
2024/01/20 02:30:43;;;;;;;18.10;15.83;;;-1.30;99.90;;;;;;4983483;28;20318;-59
2024/01/20 02:33:10;;;;;;;18.17;16.23;;;-1.20;99.90;;;;;;4986334;28;20574;-62
2024/01/20 02:35:39;;;;;;;23.27;15.77;;;-1.30;99.90;;;;;;4991800;28;20366;-62
2024/01/20 02:38:06;;;;;;;18.73;16.23;;;-1.30;99.90;;;;;;4984147;28;20194;-59
2024/01/20 02:40:33;;;;;;;17.97;16.30;;;-1.40;99.90;;;;;;4988085;28;20794;-62
2024/01/20 02:43:00;;;;;;;16.10;14.77;;;-1.50;99.90;;;;;;4991724;28;20225;-61
2024/01/20 02:45:27;;;;;;;16.80;15.33;;;-1.50;99.90;;;;;;4971116;28;20201;-61
2024/01/20 02:47:54;;;;;;;18.13;15.50;;;-1.40;99.90;;;;;;4986085;28;20202;-63
2024/01/20 02:50:22;;;;;;;17.83;16.07;;;-1.40;99.90;;;;;;4985886;28;20228;-63
2024/01/20 02:52:49;;;;;;;16.93;15.60;;;-1.40;99.90;;;;;;4983599;28;20475;-62
2024/01/20 02:55:16;;;;;;;16.57;15.20;;;-1.40;99.90;;;;;;4989741;28;20197;-63
2024/01/20 02:57:43;;;;;;;17.13;15.53;;;-1.50;99.90;;;;;;4989074;28;20586;-63
2024/01/20 03:00:11;;;;;;;16.77;15.37;;;-1.50;99.90;;;;;;4984979;28;20540;-62
2024/01/20 03:03:28;;;;;;;16.83;15.20;;;-1.50;99.90;;;;;;4974094;28;20309;-61
2024/01/20 03:05:55;;;;;;;16.33;14.97;;;-1.50;99.90;;;;;;4984097;28;20683;-61
2024/01/20 03:08:22;;;;;;;16.07;14.83;;;-1.60;99.90;;;;;;4982159;28;20257;-60
2024/01/20 03:10:49;;;;;;;16.17;14.77;;;-1.60;99.90;;;;;;4985840;28;20898;-59
2024/01/20 03:13:16;;;;;;;16.87;15.40;;;-1.60;99.90;;;;;;4988562;28;20686;-61
2024/01/20 03:15:43;;;;;;;16.87;15.47;;;-1.60;99.90;;;;;;4985658;28;20198;-62
2024/01/20 03:18:11;;;;;;;15.77;14.47;;;-1.80;99.90;;;;;;4985257;28;20221;-62
2024/01/20 03:20:38;;;;;;;17.10;15.30;;;-1.80;99.90;;;;;;4986173;28;20292;-62
2024/01/20 03:23:06;;;;;;;17.00;15.50;;;-1.80;99.90;;;;;;4970060;28;20189;-64
2024/01/20 03:25:33;;;;;;;16.17;15.00;;;-1.90;99.90;;;;;;4984847;28;20230;-66
2024/01/20 03:28:00;;;;;;;17.20;15.37;;;-1.90;99.90;;;;;;4986838;28;20688;-65
2024/01/20 03:30:27;;;;;;;17.87;15.07;;;-1.80;99.90;;;;;;4988591;28;20280;-66
2024/01/20 03:32:53;;;;;;;17.10;15.30;;;-1.80;99.90;;;;;;4983098;28;20457;-66
2024/01/20 03:35:22;;;;;;;16.33;14.83;;;-1.70;99.90;;;;;;4986064;28;20639;-67
2024/01/20 03:37:49;;;;;;;18.80;16.80;;;-1.80;99.90;;;;;;4983962;28;20221;-68
2024/01/20 03:40:16;;;;;;;16.80;15.20;;;-1.80;99.90;;;;;;4986980;28;20190;-68
2024/01/20 03:42:43;;;;;;;22.70;16.23;;;-1.80;99.90;;;;;;4984649;28;20193;-67
2024/01/20 03:45:10;;;;;;;15.27;13.97;;;-1.90;99.90;;;;;;4982866;28;20606;-67
2024/01/20 03:47:37;;;;;;;17.57;15.80;;;-1.90;99.90;;;;;;4986177;28;20281;-67
2024/01/20 03:50:06;;;;;;;17.13;15.60;;;-2.00;99.90;;;;;;4985518;28;20293;-68
2024/01/20 03:52:33;;;;;;;17.63;16.07;;;-1.90;99.90;;;;;;4970362;28;20666;-66
2024/01/20 03:55:00;;;;;;;16.97;15.53;;;-2.00;99.90;;;;;;4983180;28;20364;-66
2024/01/20 03:57:27;;;;;;;17.47;15.87;;;-2.00;99.90;;;;;;4968777;28;20608;-68
2024/01/20 03:59:54;;;;;;;16.80;15.23;;;-2.10;99.90;;;;;;4985466;28;20709;-67
2024/01/20 04:02:21;;;;;;;17.87;16.03;;;-2.10;99.90;;;;;;4984036;28;20245;-67
2024/01/20 04:04:48;;;;;;;18.00;16.20;;;-2.10;99.90;;;;;;4981888;28;20201;-66
2024/01/20 04:07:15;;;;;;;16.03;14.63;;;-2.20;99.90;;;;;;4984501;28;20202;-66
2024/01/20 04:09:42;;;;;;;17.00;15.50;;;-2.10;99.90;;;;;;4965506;28;20698;-67
2024/01/20 04:12:09;;;;;;;17.67;16.13;;;-2.10;99.90;;;;;;4985562;28;20190;-62
2024/01/20 04:14:36;;;;;;;15.73;14.53;;;-2.20;99.90;;;;;;4969422;28;20205;-63
2024/01/20 04:17:03;;;;;;;18.03;16.43;;;-2.10;99.90;;;;;;4966889;28;20309;-62
2024/01/20 04:19:30;;;;;;;19.00;17.00;;;-2.00;99.90;;;;;;4973591;28;20303;-62
2024/01/20 04:21:57;;;;;;;18.63;16.97;;;-2.00;99.90;;;;;;4971200;28;20709;-62
2024/01/20 04:24:24;;;;;;;17.67;16.07;;;-2.00;99.90;;;;;;4972151;28;20612;-62
2024/01/20 04:26:51;;;;;;;17.00;15.60;;;-2.10;99.90;;;;;;4987404;28;20228;-62
2024/01/20 04:29:18;;;;;;;17.60;15.90;;;-1.90;99.90;;;;;;4982127;28;20198;-62
2024/01/20 04:31:45;;;;;;;18.23;16.53;;;-1.90;99.90;;;;;;4969315;28;20194;-62
2024/01/20 04:34:12;;;;;;;16.77;15.27;;;-1.90;99.90;;;;;;4981095;28;20308;-63
2024/01/20 04:36:39;;;;;;;17.80;15.97;;;-1.90;99.90;;;;;;4965072;28;20190;-62
2024/01/20 04:39:06;;;;;;;18.07;16.20;;;-2.00;99.90;;;;;;4986166;28;20196;-61
2024/01/20 04:41:33;;;;;;;18.10;15.97;;;-2.00;99.90;;;;;;4988310;28;20654;-63
2024/01/20 04:44:00;;;;;;;17.57;15.77;;;-2.10;99.90;;;;;;4984444;28;20565;-63
2024/01/20 04:46:27;;;;;;;19.37;17.57;;;-2.20;99.90;;;;;;4963131;28;20240;-64
2024/01/20 04:48:54;;;;;;;17.87;16.37;;;-2.30;99.90;;;;;;4982607;28;20294;-63
2024/01/20 04:51:21;;;;;;;19.00;16.00;;;-2.30;99.90;;;;;;4985961;28;20240;-62
2024/01/20 04:53:51;;;;;;;17.50;15.90;;;-2.40;99.90;;;;;;4966908;28;20559;-62
2024/01/20 04:56:22;;;;;;;17.33;15.53;;;-2.50;99.90;;;;;;4954041;28;20273;-59
2024/01/20 04:58:51;;;;;;;18.00;16.17;;;-2.60;99.90;;;;;;4942742;28;20192;-62
2024/01/20 05:01:18;;;;;;;18.47;16.70;;;-2.60;99.90;;;;;;4941312;28;20196;-62
2024/01/20 05:03:45;;;;;;;17.13;15.77;;;-2.60;99.90;;;;;;4961309;28;20210;-60
2024/01/20 05:06:13;;;;;;;16.67;15.27;;;-2.60;99.90;;;;;;4942855;28;20237;-61
2024/01/20 05:08:40;;;;;;;16.53;14.93;;;-2.70;99.90;;;;;;4946343;29;20750;-61
2024/01/20 05:11:07;;;;;;;17.77;16.00;;;-2.70;99.90;;;;;;4940897;29;20207;-60
2024/01/20 05:13:34;;;;;;;17.40;15.93;;;-2.80;99.90;;;;;;4943257;29;20782;-62
2024/01/20 05:16:01;;;;;;;17.33;15.53;;;-2.80;99.90;;;;;;4937982;28;20210;-63
2024/01/20 05:18:28;;;;;;;18.80;16.83;;;-2.80;99.90;;;;;;4944860;28;20591;-63
2024/01/20 05:20:55;;;;;;;17.97;16.17;;;-2.70;99.90;;;;;;4944942;28;20191;-63
2024/01/20 05:23:22;;;;;;;17.13;15.43;;;-2.80;99.90;;;;;;4942988;28;20207;-63
2024/01/20 05:25:49;;;;;;;18.13;16.33;;;-2.70;99.90;;;;;;4940232;29;20289;-62
2024/01/20 05:28:16;;;;;;;16.80;15.43;;;-2.70;99.90;;;;;;4943969;29;20868;-62
2024/01/20 05:30:43;;;;;;;16.93;15.23;;;-2.80;99.90;;;;;;4943381;29;20273;-60
2024/01/20 05:33:10;;;;;;;16.57;15.07;;;-2.80;99.90;;;;;;4929712;29;20195;-61
2024/01/20 05:35:38;;;;;;;17.53;15.73;;;-2.60;99.90;;;;;;4937701;28;20203;-62
2024/01/20 05:38:05;;;;;;;16.70;15.27;;;-2.60;99.90;;;;;;4958318;28;20664;-61
2024/01/20 05:40:32;;;;;;;16.97;15.47;;;-2.50;99.90;;;;;;4945753;29;20396;-62
2024/01/20 05:42:59;;;;;;;17.47;15.87;;;-2.50;99.90;;;;;;4941440;29;20636;-62
2024/01/20 05:45:26;;;;;;;17.40;15.33;;;-2.50;99.90;;;;;;4945201;29;20656;-62
2024/01/20 05:47:53;;;;;;;18.70;16.90;;;-2.50;99.90;;;;;;4940108;28;20202;-62
2024/01/20 05:50:20;;;;;;;17.73;15.90;;;-2.60;99.90;;;;;;4943287;28;20191;-62
2024/01/20 05:52:47;;;;;;;16.33;14.93;;;-2.50;99.90;;;;;;4947020;28;20222;-61
2024/01/20 05:55:13;;;;;;;17.00;15.30;;;-2.40;99.90;;;;;;4982124;28;20209;-63
2024/01/20 05:57:40;;;;;;;17.17;15.60;;;-2.50;99.90;;;;;;4981883;28;20213;-62
2024/01/20 06:00:09;;;;;;;17.80;16.00;;;-2.50;99.90;;;;;;4985802;28;20268;-63
2024/01/20 06:02:36;;;;;;;19.07;16.67;;;-2.50;99.90;;;;;;4968827;28;20201;-60
2024/01/20 06:05:03;;;;;;;18.13;16.23;;;-2.50;99.90;;;;;;4978296;28;20209;-61
2024/01/20 06:07:30;;;;;;;20.60;16.50;;;-2.50;99.90;;;;;;4983762;28;20530;-62
2024/01/20 06:09:57;;;;;;;17.03;15.63;;;-2.60;99.90;;;;;;4981258;28;20237;-62
2024/01/20 06:12:24;;;;;;;17.23;15.53;;;-2.60;99.90;;;;;;4965041;28;20628;-61
2024/01/20 06:14:51;;;;;;;16.93;15.23;;;-2.60;99.90;;;;;;4983674;28;20930;-62
2024/01/20 06:17:18;;;;;;;17.47;15.97;;;-2.60;99.90;;;;;;4985676;28;20720;-59
2024/01/20 06:19:45;;;;;;;17.77;16.23;;;-2.70;99.90;;;;;;4981637;28;20220;-61
2024/01/20 06:22:12;;;;;;;17.70;16.07;;;-2.70;99.90;;;;;;4986509;28;20662;-60
2024/01/20 06:24:39;;;;;;;18.20;16.50;;;-2.70;99.90;;;;;;4984534;28;20206;-62
2024/01/20 06:27:06;;;;;;;18.03;16.37;;;-2.70;99.90;;;;;;4985202;28;20650;-61
2024/01/20 06:29:33;;;;;;;17.67;16.23;;;-2.70;99.90;;;;;;4981618;28;20297;-61
2024/01/20 06:32:00;;;;;;;18.73;16.67;;;-2.80;99.90;;;;;;4980469;28;20691;-62
2024/01/20 06:34:27;;;;;;;18.67;15.80;;;-2.80;99.90;;;;;;4979232;28;20891;-61
2024/01/20 06:36:54;;;;;;;19.93;17.43;;;-2.80;99.90;;;;;;4986538;28;20614;-62
2024/01/20 06:39:23;;;;;;;19.03;17.13;;;-2.80;99.90;;;;;;4975828;28;20198;-61
2024/01/20 06:41:50;;;;;;;20.63;17.07;;;-2.80;99.90;;;;;;4986277;28;20193;-63
2024/01/20 06:44:18;;;;;;;20.07;18.07;;;-2.90;99.90;;;;;;4979719;28;20206;-62
2024/01/20 06:46:44;;;;;;;20.27;17.43;;;-2.90;99.90;;;;;;4984964;28;20270;-63
2024/01/20 06:49:11;;;;;;;20.97;18.77;;;-3.00;99.90;;;;;;4972679;28;20233;-62
2024/01/20 06:51:39;;;;;;;28.83;21.77;;;-3.00;99.90;;;;;;4964387;28;20305;-62
2024/01/20 06:54:08;;;;;;;22.07;17.63;;;-3.00;99.90;;;;;;4979565;28;20774;-61
2024/01/20 06:56:35;;;;;;;22.03;19.73;;;-3.10;99.90;;;;;;4981410;28;20271;-62
2024/01/20 06:59:02;;;;;;;23.23;19.90;;;-3.00;99.90;;;;;;4980996;28;20268;-62
2024/01/20 07:01:29;;;;;;;30.60;21.73;;;-3.00;99.90;;;;;;4984532;28;20686;-62
2024/01/20 07:03:57;;;;;;;31.17;24.27;;;-3.00;99.90;;;;;;4984593;28;20202;-60
2024/01/20 07:06:24;;;;;;;30.00;23.40;;;-3.10;99.90;;;;;;4967216;28;20213;-63
2024/01/20 07:08:51;;;;;;;28.63;22.87;;;-3.10;99.90;;;;;;4980468;28;20638;-62
2024/01/20 07:11:19;;;;;;;26.30;21.87;;;-3.00;99.90;;;;;;4989060;28;20305;-62
2024/01/20 07:13:45;;;;;;;25.03;20.13;;;-2.90;99.90;;;;;;4970091;28;20558;-61
2024/01/20 07:16:15;;;;;;;23.43;18.90;;;-2.90;99.90;;;;;;4985924;28;20213;-60
2024/01/20 07:18:42;;;;;;;23.53;20.10;;;-2.80;99.90;;;;;;4986989;28;20658;-60
2024/01/20 07:21:09;;;;;;;23.90;21.40;;;-2.70;99.90;;;;;;4983945;28;20206;-59
2024/01/20 07:23:36;;;;;;;25.63;20.40;;;-2.70;99.90;;;;;;4985004;28;20202;-60
2024/01/20 07:26:03;;;;;;;29.20;22.00;;;-2.80;99.90;;;;;;4983610;28;20202;-59
2024/01/20 07:28:30;;;;;;;20.63;17.93;;;-2.80;99.90;;;;;;4981272;28;20244;-60
2024/01/20 07:30:57;;;;;;;18.33;16.47;;;-2.80;99.90;;;;;;4988350;28;20193;-59
2024/01/20 07:33:24;;;;;;;35.17;23.40;;;-2.70;99.90;;;;;;4988366;28;20256;-59
2024/01/20 07:35:51;;;;;;;37.10;24.60;;;-2.70;99.90;;;;;;4983094;28;20186;-61
2024/01/20 07:38:19;;;;;;;39.87;27.23;;;-2.70;99.90;;;;;;4981088;28;20371;-59
2024/01/20 07:40:46;;;;;;;33.33;23.50;;;-2.70;99.90;;;;;;4983351;28;20540;-59
2024/01/20 07:43:13;;;;;;;29.00;23.17;;;-2.70;99.90;;;;;;4982714;28;20248;-65
2024/01/20 07:45:40;;;;;;;21.80;19.50;;;-2.60;99.90;;;;;;4981418;28;20284;-66
2024/01/20 07:48:07;;;;;;;40.10;25.23;;;-2.60;99.90;;;;;;4984911;28;20197;-66
2024/01/20 07:50:34;;;;;;;27.50;24.27;;;-2.60;99.90;;;;;;4986121;28;20566;-67
2024/01/20 07:53:01;;;;;;;54.93;32.87;;;-2.60;99.90;;;;;;4986349;28;20329;-68
2024/01/20 07:55:28;;;;;;;25.93;20.27;;;-2.60;99.90;;;;;;4985963;28;20309;-66
2024/01/20 07:57:55;;;;;;;19.90;17.73;;;-2.50;99.90;;;;;;4982132;28;20218;-67
2024/01/20 08:00:22;;;;;;;21.67;17.10;;;-2.60;99.90;;;;;;4970765;28;20192;-67
2024/01/20 08:02:49;;;;;;;18.27;16.40;;;-2.60;99.90;;;;;;4970804;28;20197;-67
2024/01/20 08:05:16;;;;;;;19.53;17.83;;;-2.70;99.90;;;;;;4988153;28;20288;-66
2024/01/20 08:07:43;;;;;;;23.70;17.87;;;-2.60;99.90;;;;;;4988545;28;20236;-66
2024/01/20 08:10:10;;;;;;;21.87;19.60;;;-2.60;99.90;;;;;;4987351;28;20201;-66
2024/01/20 08:12:37;;;;;;;33.17;23.60;;;-2.60;99.90;;;;;;4982423;28;20541;-66
2024/01/20 08:15:05;;;;;;;34.53;20.70;;;-2.50;99.90;;;;;;4987481;28;20263;-64
2024/01/20 08:17:32;;;;;;;24.33;19.73;;;-2.50;99.90;;;;;;4959762;28;20545;-68
2024/01/20 08:19:59;;;;;;;19.50;17.57;;;-2.40;99.90;;;;;;4963352;28;20259;-66
2024/01/20 08:22:26;;;;;;;19.83;17.40;;;-2.30;99.90;;;;;;4986483;28;20189;-67
2024/01/20 08:24:53;;;;;;;19.37;17.27;;;-2.20;99.90;;;;;;4991545;28;20677;-67
2024/01/20 08:27:20;;;;;;;19.97;18.07;;;-2.20;99.90;;;;;;4970622;28;20205;-68
2024/01/20 08:29:47;;;;;;;19.30;17.50;;;-2.10;99.90;;;;;;4987732;28;20557;-68
2024/01/20 08:32:14;;;;;;;19.47;16.57;;;-2.00;99.90;;;;;;4963231;28;20901;-67
2024/01/20 08:34:40;;;;;;;17.97;16.27;;;-1.90;99.90;;;;;;4980196;28;20218;-68
2024/01/20 08:37:07;;;;;;;18.83;17.10;;;-1.80;99.90;;;;;;4987815;28;20702;-66
2024/01/20 08:39:34;;;;;;;18.77;16.90;;;-1.80;99.90;;;;;;4965588;28;20194;-67
2024/01/20 08:42:02;;;;;;;18.93;17.03;;;-1.70;99.90;;;;;;4967733;28;20268;-68
2024/01/20 08:44:30;;;;;;;19.73;18.13;;;-1.70;99.90;;;;;;4985198;28;20219;-67
2024/01/20 08:46:57;;;;;;;19.03;17.17;;;-1.60;99.90;;;;;;4967431;28;20205;-66
2024/01/20 08:49:24;;;;;;;24.87;18.33;;;-1.60;99.90;;;;;;4985621;28;20201;-66
2024/01/20 08:51:52;;;;;;;20.67;18.50;;;-1.50;99.90;;;;;;4986965;28;20487;-66
2024/01/20 08:54:19;;;;;;;18.40;16.90;;;-1.40;99.90;;;;;;4987913;28;20241;-64
2024/01/20 08:56:47;;;;;;;20.70;18.47;;;-1.30;99.90;;;;;;4967447;28;20205;-66
2024/01/20 08:59:14;;;;;;;20.53;18.53;;;-1.30;99.90;;;;;;4959402;28;20199;-64
2024/01/20 09:01:41;;;;;;;20.00;18.20;;;-1.20;99.90;;;;;;4981023;28;20304;-67
2024/01/20 09:04:08;;;;;;;19.27;17.43;;;-1.10;99.90;;;;;;4988237;28;22446;-67
2024/01/20 09:06:36;;;;;;;19.43;17.67;;;-1.00;99.90;;;;;;4984877;28;20272;-66
2024/01/20 09:09:03;;;;;;;19.33;17.47;;;-1.00;99.90;;;;;;4969699;28;20205;-67
2024/01/20 09:11:30;;;;;;;18.40;16.83;;;-0.90;99.90;;;;;;4986289;28;20248;-67
2024/01/20 09:13:57;;;;;;;22.40;20.13;;;-0.80;99.90;;;;;;4986118;28;20209;-68
2024/01/20 09:16:24;;;;;;;33.13;25.10;;;-0.70;99.90;;;;;;4987081;28;20202;-67
2024/01/20 09:18:51;;;;;;;19.67;17.67;;;-0.50;99.90;;;;;;4987719;28;20260;-66
2024/01/20 09:21:19;;;;;;;20.47;18.57;;;-0.40;99.90;;;;;;4987080;28;20193;-65
2024/01/20 09:23:46;;;;;;;21.67;19.57;;;-0.30;99.90;;;;;;4969891;28;20366;-67
2024/01/20 09:26:13;;;;;;;20.33;18.60;;;-0.20;99.90;;;;;;4985111;28;20209;-66
2024/01/20 09:28:40;;;;;;;19.33;17.43;;;0.90;99.90;;;;;;4984659;28;20279;-67
2024/01/20 09:31:07;;;;;;;23.27;19.90;;;6.60;99.90;;;;;;4985048;28;20720;-66
2024/01/20 09:33:34;;;;;;;20.03;18.30;;;11.30;99.90;;;;;;4968396;28;20260;-67
2024/01/20 09:36:02;;;;;;;19.97;18.40;;;12.70;99.90;;;;;;4983237;28;20312;-67
2024/01/20 09:38:30;;;;;;;21.27;19.50;;;15.10;99.90;;;;;;4981888;28;20205;-68
2024/01/20 09:41:00;;;;;;;22.90;21.00;;;16.20;99.90;;;;;;4981288;28;20658;-67
2024/01/20 09:43:29;;;;;;;23.27;21.30;;;15.50;99.90;;;;;;4984604;28;20201;-65
2024/01/20 09:45:58;;;;;;;23.17;21.17;;;14.00;99.90;;;;;;4982622;28;20579;-65
2024/01/20 09:48:25;;;;;;;23.70;21.47;;;14.90;99.90;;;;;;4985165;28;20530;-65
2024/01/20 09:50:52;;;;;;;23.90;21.80;;;14.60;99.90;;;;;;4986679;28;20198;-65
2024/01/20 09:53:19;;;;;;;23.27;21.37;;;13.10;99.90;;;;;;4948710;28;20325;-66
2024/01/20 09:55:46;;;;;;;23.63;21.43;;;14.00;99.90;;;;;;4984466;28;20309;-65
2024/01/20 09:58:16;;;;;;;23.93;21.83;;;14.00;99.90;;;;;;4983838;28;20204;-65
2024/01/20 10:00:43;;;;;;;24.67;22.67;;;13.30;99.90;;;;;;4966949;28;20246;-64
2024/01/20 10:03:12;;;;;;;23.73;21.57;;;10.30;99.90;;;;;;4984582;28;20189;-65
2024/01/20 10:05:39;;;;;;;23.23;21.13;;;9.50;99.90;;;;;;4979983;28;20529;-66
2024/01/20 10:08:06;;;;;;;23.57;21.33;;;11.30;99.90;;;;;;4968324;28;20626;-65
2024/01/20 10:10:34;;;;;;;22.93;20.63;;;13.10;99.90;;;;;;4986298;28;20677;-65
2024/01/20 10:13:01;;;;;;;23.17;20.87;;;14.80;99.90;;;;;;4985959;28;20717;-64
2024/01/20 10:15:30;;;;;;;22.40;20.17;;;14.30;99.90;;;;;;4987281;28;20205;-65
2024/01/20 10:18:08;;;;;;;23.97;21.57;;;13.70;99.90;;;;;;4985985;28;20204;-65
2024/01/20 10:20:35;;;;;;;23.33;21.13;;;15.30;99.90;;;;;;4971246;28;20193;-65
2024/01/20 10:23:05;;;;;;;21.60;19.90;;;13.90;99.90;;;;;;4986166;28;20276;-65
2024/01/20 10:25:32;;;;;;;23.87;21.77;;;14.30;99.90;;;;;;4988888;28;20308;-65
2024/01/20 10:27:59;;;;;;;23.77;21.63;;;13.70;99.90;;;;;;4985346;28;20280;-65
2024/01/20 10:30:28;;;;;;;25.67;23.23;;;15.50;99.90;;;;;;4983451;28;20221;-64
2024/01/20 10:32:58;;;;;;;24.63;22.65;;;15.50;99.90;;;;;;4984905;28;20262;-65
2024/01/20 10:35:36;;;;;;;25.58;23.20;;;16.40;99.90;;;;;;4983625;28;20216;-66
2024/01/20 10:38:12;;;;;;;22.90;20.70;;;13.40;99.90;;;;;;4984590;28;20691;-67
2024/01/20 10:40:42;;;;;;;23.20;21.10;;;11.10;99.90;;;;;;4990764;28;20197;-66
2024/01/20 10:43:14;;;;;;;22.37;20.37;;;11.70;99.90;;;;;;4982663;28;20261;-66
2024/01/20 10:46:01;;;;;;;21.73;19.73;;;14.10;99.90;;;;;;4986562;28;20288;-66
2024/01/20 10:48:36;;;;;;;22.73;20.45;;;16.80;99.90;;;;;;4987596;28;20748;-66
2024/01/20 10:51:09;;;;;;;21.80;19.90;;;16.40;99.90;;;;;;4983718;28;20200;-66
2024/01/20 10:53:36;;;;;;;23.30;21.10;;;14.70;99.90;;;;;;5003392;28;20232;-66
2024/01/20 10:56:06;;;;;;;24.50;22.30;;;13.00;99.90;;;;;;4990440;28;20667;-66
2024/01/20 10:58:50;;;;;;;23.60;21.60;;;12.90;99.90;;;;;;4971372;28;20203;-64
2024/01/20 11:01:18;;;;;;;24.90;22.33;;;13.90;99.90;;;;;;4988904;28;20189;-64
2024/01/20 11:03:46;;;;;;;23.47;21.57;;;11.10;99.90;;;;;;4988645;28;20260;-65
2024/01/20 11:06:20;;;;;;;22.93;21.00;;;12.10;99.90;;;;;;4988041;28;20712;-66
2024/01/20 11:08:50;;;;;;;23.17;21.03;;;13.00;99.90;;;;;;4987138;28;20280;-66
2024/01/20 11:11:27;;;;;;;23.13;21.13;;;12.60;99.90;;;;;;4979492;28;20210;-65
2024/01/20 11:14:01;;;;;;;24.07;21.73;;;11.20;99.90;;;;;;4957369;28;20201;-60
2024/01/20 11:16:32;;;;;;;22.77;20.73;;;12.50;99.90;;;;;;4988213;28;20210;-60
2024/01/20 11:19:11;;;;;;;23.10;21.00;;;12.00;99.90;;;;;;4965811;28;20638;-63
2024/01/20 11:21:39;;;;;;;22.70;20.70;;;11.90;99.90;;;;;;4963542;28;20240;-62
2024/01/20 11:24:06;;;;;;;22.93;20.83;;;13.80;99.90;;;;;;4985032;28;20276;-61
2024/01/20 11:26:35;;;;;;;22.70;20.37;;;13.60;99.90;;;;;;4982773;28;20279;-60
2024/01/20 11:29:05;;;;;;;22.43;20.50;;;13.60;99.90;;;;;;4987382;28;20320;-60
2024/01/20 11:31:33;;;;;;;22.90;20.90;;;13.30;99.90;;;;;;4986475;28;20737;-61
2024/01/20 11:34:02;;;;;;;22.70;20.80;;;13.80;99.90;;;;;;4971633;28;20278;-61
2024/01/20 11:36:30;;;;;;;23.13;21.17;;;13.80;99.90;;;;;;4968113;28;20292;-60
2024/01/20 11:38:59;;;;;;;23.20;21.00;;;14.10;99.90;;;;;;4992590;28;20193;-64
2024/01/20 11:41:26;;;;;;;23.65;21.20;;;14.80;99.90;;;;;;4955263;28;20285;-60
2024/01/20 11:43:53;;;;;;;23.10;21.03;;;13.70;99.90;;;;;;4988270;28;20603;-60
2024/01/20 11:46:20;;;;;;;23.67;21.33;;;12.10;99.90;;;;;;4991065;28;20198;-62
2024/01/20 11:48:48;;;;;;;22.97;20.90;;;12.20;99.90;;;;;;4971293;28;20293;-62
2024/01/20 11:51:16;;;;;;;23.27;21.20;;;11.20;99.90;;;;;;4988823;28;20201;-61
2024/01/20 11:53:45;;;;;;;23.03;21.03;;;11.20;99.90;;;;;;4988541;28;20237;-61
2024/01/20 11:56:15;;;;;;;23.47;21.33;;;10.80;99.90;;;;;;4988294;28;20221;-60
2024/01/20 11:58:42;;;;;;;23.23;21.10;;;11.40;99.90;;;;;;4985096;28;20221;-60
2024/01/20 12:01:09;;;;;;;23.40;21.27;;;12.80;99.90;;;;;;4970308;28;20209;-60
2024/01/20 12:03:36;;;;;;;24.40;22.00;;;12.80;99.90;;;;;;4997294;28;20434;-61
2024/01/20 12:06:07;;;;;;;23.00;20.90;;;13.00;99.90;;;;;;4983762;28;20201;-61
2024/01/20 12:08:44;;;;;;;23.50;21.40;;;12.60;99.90;;;;;;4986755;28;20217;-61
2024/01/20 12:11:19;;;;;;;23.40;21.30;;;12.20;99.90;;;;;;4970744;28;20280;-61
2024/01/20 12:13:46;;;;;;;22.63;20.70;;;11.50;99.90;;;;;;4984414;28;20193;-65
2024/01/20 12:16:14;;;;;;;22.50;20.50;;;11.00;99.90;;;;;;4994396;28;20300;-61
2024/01/20 12:18:41;;;;;;;24.03;21.93;;;11.80;99.90;;;;;;4971580;28;20201;-62
2024/01/20 12:21:09;;;;;;;24.00;21.73;;;12.10;99.90;;;;;;4968281;28;20308;-62
2024/01/20 12:23:36;;;;;;;24.63;21.93;;;12.30;99.90;;;;;;4977293;28;20205;-61
2024/01/20 12:26:13;;;;;;;22.73;20.80;;;11.80;99.90;;;;;;4967018;28;20722;-61
2024/01/20 12:28:42;;;;;;;22.17;20.33;;;10.90;99.90;;;;;;4974427;28;20204;-61
2024/01/20 12:31:10;;;;;;;23.10;20.77;;;10.40;99.90;;;;;;4985875;28;20190;-62